Time;durP1;ratioP1;P1;durP2;ratioP2;P2;SDS_P1;SDS_P2;PMS_P1;PMS_P2;Temp;Humidity;BMP_temperature;BMP_pressure;BME280_temperature;BME280_humidity;BME280_pressure;Samples;Min_cycle;Max_cycle;Signal;HPM_P1;HPM_P2
2021/12/14 00:02:27;;;;;;;30.02;19.45;;;;;;;7.81;100.00;101856.97;5050141;28;20074;-60
2021/12/14 00:04:59;;;;;;;30.63;18.42;;;;;;;7.81;100.00;101848.25;5045821;28;20041;-59
2021/12/14 00:07:26;;;;;;;25.92;17.25;;;;;;;7.78;100.00;101848.31;5049402;28;20076;-60
2021/12/14 00:10:02;;;;;;;30.63;18.42;;;;;;;7.76;100.00;101853.63;5048779;28;20064;-60
2021/12/14 00:12:38;;;;;;;30.23;19.63;;;;;;;7.76;100.00;101860.63;5048294;28;20132;-58
2021/12/14 00:15:10;;;;;;;33.15;19.13;;;;;;;7.73;100.00;101858.06;5054032;28;20064;-61
2021/12/14 00:17:41;;;;;;;35.22;20.45;;;;;;;7.75;100.00;101859.75;5046386;28;20517;-60
2021/12/14 00:20:20;;;;;;;30.73;18.40;;;;;;;7.75;100.00;101865.00;5044604;28;20060;-59
2021/12/14 00:25:26;;;;;;;30.88;19.13;;;;;;;7.75;100.00;101856.28;5047409;28;20059;-59
2021/12/14 00:27:54;;;;;;;27.63;17.63;;;;;;;7.78;100.00;101856.19;5047296;28;20083;-60
2021/12/14 00:30:22;;;;;;;29.15;17.80;;;;;;;7.78;100.00;101848.31;5045072;28;20408;-60
2021/12/14 00:32:49;;;;;;;25.85;18.50;;;;;;;7.75;100.00;101848.41;5030776;28;20060;-59
2021/12/14 00:35:16;;;;;;;25.85;18.02;;;;;;;7.76;100.00;101848.38;5041098;28;20059;-59
2021/12/14 00:37:46;;;;;;;27.45;18.83;;;;;;;7.76;100.00;101851.00;5035773;28;20060;-59
2021/12/14 00:40:21;;;;;;;25.77;16.17;;;;;;;7.81;100.00;101853.47;5044627;28;20061;-60
2021/12/14 00:42:49;;;;;;;22.75;16.42;;;;;;;7.76;100.00;101847.50;5046121;28;20049;-62
2021/12/14 00:45:18;;;;;;;27.27;17.50;;;;;;;7.81;100.00;101849.09;5048187;28;20127;-60
2021/12/14 00:47:45;;;;;;;28.15;19.50;;;;;;;7.78;100.00;101858.81;5043300;28;20052;-61
2021/12/14 00:50:13;;;;;;;24.25;16.80;;;;;;;7.76;100.00;101852.75;5043914;28;20049;-59
2021/12/14 00:52:42;;;;;;;25.77;17.42;;;;;;;7.80;100.00;101865.72;5043170;28;20049;-60
2021/12/14 00:55:13;;;;;;;25.63;18.48;;;;;;;7.74;100.00;101851.91;5044825;28;20087;-61
2021/12/14 00:57:40;;;;;;;30.60;17.88;;;;;;;7.73;100.00;101845.81;5045872;28;20139;-59
2021/12/14 01:00:12;;;;;;;25.15;17.70;;;;;;;7.73;100.00;101850.22;5041501;28;20057;-59
2021/12/14 01:02:39;;;;;;;24.17;17.75;;;;;;;7.71;100.00;101852.88;5048437;28;20099;-61
2021/12/14 01:05:11;;;;;;;23.83;17.70;;;;;;;7.70;100.00;101851.16;5042166;28;20051;-59
2021/12/14 01:07:39;;;;;;;27.13;18.00;;;;;;;7.68;100.00;101854.72;5053686;28;20111;-62
2021/12/14 01:10:18;;;;;;;29.65;19.00;;;;;;;7.66;100.00;101856.53;5041889;28;20045;-59
2021/12/14 01:12:51;;;;;;;24.27;17.90;;;;;;;7.62;100.00;101850.50;5047915;28;20149;-61
2021/12/14 01:15:28;;;;;;;29.95;18.73;;;;;;;7.65;100.00;101854.78;5049056;28;20570;-60
2021/12/14 01:18:27;;;;;;;29.27;18.17;;;;;;;7.75;100.00;101856.28;5044983;28;20049;-61
2021/12/14 01:21:00;;;;;;;28.08;19.40;;;;;;;7.69;100.00;101854.66;5040030;28;20056;-59
2021/12/14 01:23:32;;;;;;;23.85;16.98;;;;;;;7.69;100.00;101853.81;5050202;28;20048;-60
2021/12/14 01:26:12;;;;;;;24.45;17.67;;;;;;;7.67;100.00;101853.00;5046100;28;20036;-58
2021/12/14 01:28:41;;;;;;;25.45;18.02;;;;;;;7.63;100.00;101846.97;5038584;28;20509;-59
2021/12/14 01:31:21;;;;;;;26.80;17.13;;;;;;;7.61;100.00;101857.53;5039169;28;20057;-59
2021/12/14 01:33:53;;;;;;;23.67;17.35;;;;;;;7.67;100.00;101847.78;5046389;28;20080;-61
2021/12/14 01:36:26;;;;;;;30.90;17.08;;;;;;;7.72;100.00;101854.59;5048253;28;20056;-60
2021/12/14 01:39:20;;;;;;;26.25;17.50;;;;;;;7.66;100.00;101846.06;5044698;28;20065;-60
2021/12/14 01:41:49;;;;;;;28.67;18.67;;;;;;;7.64;100.00;101846.06;5044324;28;20059;-60
2021/12/14 01:44:16;;;;;;;24.48;17.90;;;;;;;7.61;100.00;101847.03;5042546;28;20588;-60
2021/12/14 01:46:47;;;;;;;21.88;16.40;;;;;;;7.64;100.00;101839.97;5049291;28;20624;-60
2021/12/14 01:49:16;;;;;;;25.08;17.02;;;;;;;7.61;100.00;101841.78;5036801;28;20721;-58
2021/12/14 01:51:49;;;;;;;22.20;16.00;;;;;;;7.60;100.00;101833.94;5046326;28;20537;-61
2021/12/14 01:54:20;;;;;;;25.42;16.75;;;;;;;7.70;100.00;101842.41;5045292;28;20049;-62
2021/12/14 01:56:48;;;;;;;21.13;15.65;;;;;;;7.64;100.00;101840.84;5048925;28;20060;-59
2021/12/14 01:59:22;;;;;;;22.85;16.33;;;;;;;7.64;100.00;101832.13;5026853;28;20059;-60
2021/12/14 02:01:57;;;;;;;23.73;16.13;;;;;;;7.70;100.00;101830.19;5044726;28;20123;-59
2021/12/14 02:04:27;;;;;;;19.60;14.43;;;;;;;7.66;100.00;101832.94;5043126;28;20063;-62
2021/12/14 02:07:02;;;;;;;18.48;13.85;;;;;;;7.65;100.00;101821.56;5050987;28;20091;-59
2021/12/14 02:09:32;;;;;;;23.13;15.55;;;;;;;7.67;100.00;101827.66;5044189;28;20049;-61
2021/12/14 02:12:08;;;;;;;21.20;13.90;;;;;;;7.67;100.00;101825.03;5043809;28;20386;-60
2021/12/14 02:14:36;;;;;;;19.35;14.32;;;;;;;7.65;100.00;101818.09;5026605;28;21163;-59
2021/12/14 02:17:05;;;;;;;19.42;13.95;;;;;;;7.65;100.00;101816.34;5047245;28;20497;-60
2021/12/14 02:19:33;;;;;;;18.65;12.82;;;;;;;7.61;100.00;101814.72;5043498;28;20059;-60
2021/12/14 02:22:02;;;;;;;19.65;15.10;;;;;;;7.63;100.00;101814.69;5049044;28;20049;-59
2021/12/14 02:24:30;;;;;;;22.20;15.77;;;;;;;7.61;100.00;101810.34;5050326;28;20071;-60
2021/12/14 02:26:57;;;;;;;21.55;13.95;;;;;;;7.56;100.00;101809.59;5044171;28;20045;-61
2021/12/14 02:29:24;;;;;;;19.92;13.85;;;;;;;7.59;100.00;101806.03;5041545;28;20071;-58
2021/12/14 02:31:56;;;;;;;18.08;12.77;;;;;;;7.64;100.00;101809.38;5047483;28;20059;-58
2021/12/14 02:34:24;;;;;;;16.98;12.77;;;;;;;7.60;100.00;101811.22;5026422;28;20085;-60
2021/12/14 02:36:52;;;;;;;17.88;12.70;;;;;;;7.56;100.00;101809.59;5040259;28;20136;-61
2021/12/14 02:42:09;;;;;;;18.50;13.32;;;;;;;7.58;100.00;101804.31;5038277;28;20037;-58
2021/12/14 02:44:37;;;;;;;20.50;13.43;;;;;;;7.52;100.00;101813.22;5041685;28;20059;-56
2021/12/14 02:47:10;;;;;;;18.00;12.65;;;;;;;7.51;100.00;101805.38;5044321;28;20048;-62
2021/12/14 02:49:44;;;;;;;17.42;13.00;;;;;;;7.54;100.00;101802.69;5040980;28;20433;-61
2021/12/14 02:52:27;;;;;;;19.85;12.43;;;;;;;7.49;100.00;101802.81;5038101;28;20076;-61
2021/12/14 02:55:03;;;;;;;19.88;13.23;;;;;;;7.50;100.00;101793.19;5042242;28;20066;-61
2021/12/14 02:57:34;;;;;;;14.93;11.00;;;;;;;7.55;100.00;101801.78;5046241;28;20520;-60
2021/12/14 03:00:12;;;;;;;17.35;11.98;;;;;;;7.53;100.00;101791.34;5040118;28;20045;-62
2021/12/14 03:02:40;;;;;;;17.58;11.90;;;;;;;7.52;100.00;101786.13;5045362;28;20059;-60
2021/12/14 03:05:16;;;;;;;17.58;12.05;;;;;;;7.46;100.00;101789.78;5046127;28;20067;-60
2021/12/14 03:07:48;;;;;;;23.58;12.25;;;;;;;7.49;100.00;101787.09;5044314;28;20048;-60
2021/12/14 03:10:33;;;;;;;19.80;12.07;;;;;;;7.51;100.00;101777.41;5043622;28;20057;-59
2021/12/14 03:13:05;;;;;;;19.75;13.77;;;;;;;7.49;100.00;101784.47;5046663;28;20624;-60
2021/12/14 03:15:48;;;;;;;18.88;12.85;;;;;;;7.48;100.00;101779.28;5045459;28;20085;-61
2021/12/14 03:18:23;;;;;;;14.77;11.43;;;;;;;7.46;100.00;101783.69;5038919;28;20511;-58
2021/12/14 03:20:59;;;;;;;21.20;12.10;;;;;;;7.49;100.00;101778.38;5043028;28;20057;-57
2021/12/14 03:23:34;;;;;;;15.80;11.65;;;;;;;7.49;100.00;101774.00;5027418;28;20045;-60
2021/12/14 03:26:06;;;;;;;20.45;11.30;;;;;;;7.52;100.00;101775.66;5041916;28;20124;-58
2021/12/14 03:28:34;;;;;;;15.50;11.38;;;;;;;7.50;100.00;101773.09;5024912;28;20140;-58
2021/12/14 03:31:19;;;;;;;17.05;11.95;;;;;;;7.42;100.00;101772.44;5038209;28;20144;-58
2021/12/14 03:33:50;;;;;;;17.02;12.48;;;;;;;7.43;100.00;101774.16;5040611;28;20045;-59
2021/12/14 03:36:23;;;;;;;17.73;11.32;;;;;;;7.41;100.00;101770.72;5044743;28;20417;-60
2021/12/14 03:39:15;;;;;;;16.63;11.68;;;;;;;7.40;100.00;101770.78;5020701;28;20683;-59
2021/12/14 03:41:49;;;;;;;17.30;11.73;;;;;;;7.33;100.00;101770.06;5038710;28;20061;-60
2021/12/14 03:44:29;;;;;;;17.07;11.33;;;;;;;7.30;100.00;101764.94;5041482;28;20061;-59
2021/12/14 03:47:03;;;;;;;15.63;11.57;;;;;;;7.33;100.00;101757.81;5045199;28;20049;-61
2021/12/14 03:49:39;;;;;;;17.75;11.82;;;;;;;7.40;100.00;101755.06;5041181;28;20049;-61
2021/12/14 03:52:09;;;;;;;16.90;11.70;;;;;;;7.32;100.00;101755.25;5024733;28;20068;-61
2021/12/14 03:54:36;;;;;;;17.38;12.55;;;;;;;7.34;100.00;101761.31;5037488;28;20579;-61
2021/12/14 03:57:04;;;;;;;15.27;10.98;;;;;;;7.32;100.00;101755.25;5047657;28;20048;-60
2021/12/14 03:59:32;;;;;;;19.65;11.73;;;;;;;7.40;100.00;101755.91;5040487;28;20141;-59
2021/12/14 04:02:01;;;;;;;15.60;11.88;;;;;;;7.43;100.00;101745.34;5043917;28;20049;-61
2021/12/14 04:04:36;;;;;;;16.40;11.65;;;;;;;7.48;100.00;101738.22;5048605;28;20055;-61
2021/12/14 04:07:07;;;;;;;17.35;11.82;;;;;;;7.41;100.00;101736.66;5042991;28;20045;-59
2021/12/14 04:09:36;;;;;;;19.13;13.10;;;;;;;7.36;100.00;101738.56;5042232;28;20067;-59
2021/12/14 04:12:08;;;;;;;17.85;12.55;;;;;;;7.39;100.00;101730.63;5023832;28;20055;-58
2021/12/14 04:14:40;;;;;;;21.77;13.63;;;;;;;7.25;100.00;101722.25;5044281;28;20530;-59
2021/12/14 04:17:09;;;;;;;17.58;12.50;;;;;;;7.28;100.00;101717.81;5048856;28;20087;-57
2021/12/14 04:19:39;;;;;;;19.02;13.00;;;;;;;7.22;100.00;101702.25;5047741;28;20067;-60
2021/12/14 04:22:12;;;;;;;21.02;13.50;;;;;;;7.26;100.00;101698.66;5048304;28;20057;-60
2021/12/14 04:24:40;;;;;;;18.65;12.10;;;;;;;7.28;100.00;101703.84;5014441;28;20076;-58
2021/12/14 04:27:11;;;;;;;19.25;13.20;;;;;;;7.22;100.00;101688.31;5046459;28;20401;-59
2021/12/14 04:29:38;;;;;;;20.45;12.48;;;;;;;7.17;100.00;101693.69;5044070;28;20063;-60
2021/12/14 04:32:09;;;;;;;20.13;13.00;;;;;;;7.19;100.00;101697.09;5050445;28;20060;-59
2021/12/14 04:34:36;;;;;;;21.45;13.18;;;;;;;7.31;100.00;101686.28;5040830;28;20140;-60
2021/12/14 04:37:04;;;;;;;22.83;13.77;;;;;;;7.28;100.00;101702.09;5049407;28;20055;-59
2021/12/14 04:39:55;;;;;;;18.13;11.00;;;;;;;7.29;100.00;101698.56;5040799;28;20045;-61
2021/12/14 04:53:53;;;;;;;24.55;13.40;;;;;;;7.24;100.00;101683.88;5044332;28;20056;-59
2021/12/14 04:56:26;;;;;;;21.52;12.48;;;;;;;7.28;100.00;101696.00;5042286;28;20067;-59
2021/12/14 04:59:00;;;;;;;20.38;13.52;;;;;;;7.23;100.00;101690.88;5025600;28;20056;-58
2021/12/14 05:01:27;;;;;;;20.83;13.00;;;;;;;7.22;100.00;101693.56;5030690;28;20099;-59
2021/12/14 05:04:05;;;;;;;23.77;14.13;;;;;;;7.13;100.00;101689.44;5053418;28;20064;-58
2021/12/14 05:06:46;;;;;;;20.58;13.38;;;;;;;7.10;100.00;101689.50;5051628;28;20044;-60
2021/12/14 05:09:21;;;;;;;18.58;12.52;;;;;;;7.08;100.00;101694.78;5031281;28;20396;-60
2021/12/14 05:11:51;;;;;;;21.58;13.23;;;;;;;7.22;100.00;101710.13;5051029;28;20084;-60
2021/12/14 05:14:19;;;;;;;21.08;13.70;;;;;;;7.15;100.00;101713.78;5048540;28;21082;-60
2021/12/14 05:16:46;;;;;;;19.65;12.30;;;;;;;7.12;100.00;101708.66;5055006;28;20053;-61
2021/12/14 05:19:31;;;;;;;24.20;12.23;;;;;;;7.06;100.00;101714.91;5047840;28;20061;-60
2021/12/14 05:22:02;;;;;;;18.58;12.60;;;;;;;7.02;100.00;101718.50;5051933;28;20051;-59
2021/12/14 05:24:30;;;;;;;20.77;13.02;;;;;;;7.04;100.00;101724.56;5048478;28;20464;-60
2021/12/14 05:27:00;;;;;;;21.88;13.18;;;;;;;7.01;100.00;101731.66;5047592;28;20060;-59
2021/12/14 05:29:29;;;;;;;22.00;13.52;;;;;;;6.95;100.00;101730.06;5045764;28;20055;-61
2021/12/14 05:31:57;;;;;;;20.48;12.15;;;;;;;6.98;100.00;101734.34;5042838;28;20048;-61
2021/12/14 05:34:26;;;;;;;20.10;12.55;;;;;;;7.00;100.00;101735.16;5041970;28;20072;-60
2021/12/14 05:36:54;;;;;;;21.25;12.95;;;;;;;7.09;100.00;101727.91;5051642;28;20052;-61
2021/12/14 05:39:48;;;;;;;20.98;13.07;;;;;;;7.04;100.00;101726.34;5044372;28;20053;-61
2021/12/14 05:45:14;;;;;;;21.13;13.20;;;;;;;7.05;100.00;101734.13;5044773;28;20788;-61
2021/12/14 05:47:49;;;;;;;20.45;12.25;;;;;;;7.05;100.00;101733.28;5032376;28;20075;-60
2021/12/14 05:50:23;;;;;;;15.32;11.38;;;;;;;6.98;100.00;101727.38;5049512;28;20052;-60
2021/12/14 05:52:50;;;;;;;18.55;12.07;;;;;;;6.95;100.00;101737.91;5050519;28;20041;-61
2021/12/14 05:55:24;;;;;;;19.65;12.15;;;;;;;6.99;100.00;101725.59;5034994;28;20442;-61
2021/12/14 05:57:55;;;;;;;16.92;11.13;;;;;;;7.09;100.00;101721.84;5041238;28;20045;-56
2021/12/14 06:00:30;;;;;;;18.92;12.20;;;;;;;6.97;100.00;101722.16;5047708;28;20057;-61
2021/12/14 06:02:57;;;;;;;23.30;12.32;;;;;;;6.99;100.00;101723.84;4989891;28;20064;-64
2021/12/14 06:05:28;;;;;;;16.40;10.73;;;;;;;7.02;100.00;101723.75;4982496;28;20672;-61
2021/12/14 06:07:56;;;;;;;18.20;11.15;;;;;;;7.00;100.00;101716.84;5002732;28;20137;-63
2021/12/14 06:10:24;;;;;;;19.67;10.75;;;;;;;6.99;100.00;101713.38;5004420;28;20111;-62
2021/12/14 06:12:51;;;;;;;17.92;10.70;;;;;;;6.97;100.00;101719.53;5026875;28;20083;-61
2021/12/14 06:15:26;;;;;;;17.23;11.68;;;;;;;6.89;100.00;101725.00;5024376;28;20137;-65
2021/12/14 06:17:53;;;;;;;17.08;10.88;;;;;;;6.89;100.00;101719.75;5023343;28;20136;-61
2021/12/14 06:20:24;;;;;;;19.20;11.38;;;;;;;6.90;100.00;101729.31;5026543;28;20064;-60
2021/12/14 06:22:52;;;;;;;15.00;10.35;;;;;;;7.02;100.00;101720.25;5030398;28;20138;-64
2021/12/14 06:25:23;;;;;;;18.13;11.60;;;;;;;6.99;100.00;101715.13;5022062;28;20053;-62
2021/12/14 06:27:50;;;;;;;17.13;10.60;;;;;;;6.97;100.00;101709.06;5018678;28;20045;-62
2021/12/14 06:30:21;;;;;;;19.60;12.30;;;;;;;6.94;100.00;101717.88;5024115;28;20049;-62
2021/12/14 06:32:55;;;;;;;21.13;10.80;;;;;;;6.98;100.00;101709.03;5021335;28;20529;-62
2021/12/14 06:35:35;;;;;;;17.33;11.23;;;;;;;6.93;100.00;101696.94;5022216;28;20042;-61
2021/12/14 06:38:29;;;;;;;20.50;11.40;;;;;;;6.84;100.00;101692.81;5026818;28;20049;-62
2021/12/14 06:41:13;;;;;;;17.77;11.90;;;;;;;6.87;100.00;101697.13;5023513;28;20136;-62
2021/12/14 06:43:54;;;;;;;19.15;11.45;;;;;;;6.81;100.00;101693.78;5021802;28;20509;-63
2021/12/14 06:46:29;;;;;;;19.92;10.88;;;;;;;6.80;100.00;101697.28;5026693;28;20073;-62
2021/12/14 06:49:01;;;;;;;19.15;10.35;;;;;;;6.83;100.00;101693.72;5023051;28;20053;-62
2021/12/14 06:51:32;;;;;;;15.45;10.32;;;;;;;6.84;100.00;101695.44;5005607;28;20422;-63
2021/12/14 06:54:07;;;;;;;19.00;11.38;;;;;;;6.79;100.00;101697.31;5023173;28;20061;-63
2021/12/14 06:56:35;;;;;;;18.10;11.10;;;;;;;6.82;100.00;101703.34;5006584;28;20124;-63
2021/12/14 06:59:20;;;;;;;18.70;10.95;;;;;;;6.83;100.00;101697.19;5019461;28;21007;-63
2021/12/14 07:01:53;;;;;;;17.42;10.95;;;;;;;6.83;100.00;101704.19;5009623;28;20133;-63
2021/12/14 07:04:26;;;;;;;19.83;11.43;;;;;;;6.76;100.00;101694.78;5001477;28;20102;-63
2021/12/14 07:06:58;;;;;;;;;;;;;;;6.77;100.00;101686.03;5030098;28;20337;-63
2021/12/14 07:09:33;;;;;;;17.77;10.90;;;;;;;6.77;100.00;101692.13;5026819;28;19955;-63
2021/12/14 07:12:03;;;;;;;19.85;10.40;;;;;;;6.75;100.00;101685.19;5013043;28;20056;-63
2021/12/14 07:14:36;;;;;;;17.70;11.68;;;;;;;6.73;100.00;101703.56;5017994;28;20053;-63
2021/12/14 07:17:12;;;;;;;16.90;11.02;;;;;;;6.70;100.00;101708.03;5024487;28;20483;-64
2021/12/14 07:19:53;;;;;;;17.40;10.93;;;;;;;6.74;100.00;101717.50;5023137;28;20045;-63
2021/12/14 07:22:28;;;;;;;16.65;11.30;;;;;;;6.73;100.00;101715.81;5025352;28;20141;-64
2021/12/14 07:25:15;;;;;;;15.77;10.95;;;;;;;6.71;100.00;101728.94;5023633;28;20041;-63
2021/12/14 07:27:44;;;;;;;20.05;11.88;;;;;;;6.67;100.00;101726.44;5025504;28;20046;-63
2021/12/14 07:30:19;;;;;;;19.67;11.18;;;;;;;6.71;100.00;101730.66;5027081;28;20050;-63
2021/12/14 07:32:50;;;;;;;16.55;11.38;;;;;;;6.72;100.00;101743.72;5033832;28;20140;-63
2021/12/14 07:35:32;;;;;;;18.35;11.65;;;;;;;6.70;100.00;101731.56;5010356;28;20421;-63
2021/12/14 07:38:16;;;;;;;17.58;10.90;;;;;;;6.76;100.00;101729.69;5024481;28;20143;-63
2021/12/14 07:40:50;;;;;;;27.67;11.43;;;;;;;6.78;100.00;101737.47;5031876;28;20129;-63
2021/12/14 07:43:24;;;;;;;16.73;10.68;;;;;;;6.80;100.00;101736.56;5029462;28;20559;-64
2021/12/14 07:45:52;;;;;;;20.38;11.35;;;;;;;6.77;100.00;101736.63;5010063;28;20128;-63
2021/12/14 07:48:23;;;;;;;17.50;10.90;;;;;;;6.85;100.00;101741.66;5028909;28;20053;-62
2021/12/14 07:50:56;;;;;;;15.93;10.13;;;;;;;6.80;100.00;101733.94;5014438;28;20179;-61
2021/12/14 07:53:31;;;;;;;16.55;11.02;;;;;;;6.89;100.00;101735.47;5007603;28;20061;-63
2021/12/14 07:55:59;;;;;;;18.20;10.55;;;;;;;6.84;100.00;101740.81;5027975;28;20500;-62
2021/12/14 07:58:40;;;;;;;17.73;11.38;;;;;;;6.81;100.00;101750.50;5014141;28;20053;-64
2021/12/14 08:01:08;;;;;;;15.52;10.63;;;;;;;6.83;100.00;101744.31;5027495;28;20427;-64
2021/12/14 08:03:36;;;;;;;23.85;11.00;;;;;;;6.81;100.00;101745.25;5022404;28;20559;-64
2021/12/14 08:06:08;;;;;;;19.58;11.43;;;;;;;6.82;100.00;101744.34;5030835;28;20049;-63
2021/12/14 08:08:48;;;;;;;16.02;10.93;;;;;;;6.80;100.00;101749.63;5035176;28;20053;-63
2021/12/14 08:14:09;;;;;;;15.40;11.07;;;;;;;6.87;100.00;101745.09;5032349;28;20052;-64
2021/12/14 08:16:42;;;;;;;15.38;11.18;;;;;;;6.89;100.00;101739.81;5027982;28;20156;-64
2021/12/14 08:19:36;;;;;;;19.92;11.55;;;;;;;7.00;100.00;101754.34;5033355;28;20037;-64
2021/12/14 08:22:12;;;;;;;16.95;10.98;;;;;;;6.92;100.00;101752.81;5019021;28;20041;-64
2021/12/14 08:24:47;;;;;;;17.80;10.38;;;;;;;6.92;100.00;101748.44;5023528;28;20045;-65
2021/12/14 08:27:18;;;;;;;16.25;10.40;;;;;;;6.88;100.00;101762.50;5023704;28;20111;-62
2021/12/14 08:29:50;;;;;;;18.30;11.27;;;;;;;6.94;100.00;101779.84;5026722;28;20145;-63
2021/12/14 08:32:23;;;;;;;16.58;10.35;;;;;;;6.89;100.00;101764.25;5033166;28;20237;-64
2021/12/14 08:34:53;;;;;;;16.55;10.85;;;;;;;6.94;100.00;101767.59;5022778;28;20063;-64
2021/12/14 08:37:33;;;;;;;17.77;10.40;;;;;;;6.97;100.00;101762.28;5029056;28;20133;-64
2021/12/14 08:40:19;;;;;;;15.55;10.50;;;;;;;6.99;100.00;101767.50;5023249;28;20179;-64
2021/12/14 08:43:02;;;;;;;14.05;10.48;;;;;;;6.96;100.00;101771.03;5028303;28;20065;-64
2021/12/14 08:45:33;;;;;;;21.17;11.82;;;;;;;6.92;100.00;101774.63;5029190;28;20123;-64
2021/12/14 08:48:11;;;;;;;16.73;10.90;;;;;;;6.92;100.00;101779.84;5024373;28;20128;-64
2021/12/14 08:50:52;;;;;;;18.90;10.70;;;;;;;6.95;100.00;101777.19;5026331;28;20046;-64
2021/12/14 08:53:24;;;;;;;15.18;10.35;;;;;;;7.01;100.00;101779.63;5023404;28;20165;-64
2021/12/14 08:55:55;;;;;;;19.42;10.88;;;;;;;6.99;100.00;101783.19;5027279;28;20379;-64
2021/12/14 08:58:22;;;;;;;17.58;11.18;;;;;;;6.96;100.00;101786.75;5011347;28;20049;-64
2021/12/14 09:00:55;;;;;;;14.18;10.30;;;;;;;6.96;100.00;101773.66;5026642;28;20144;-64
2021/12/14 09:03:33;;;;;;;18.70;11.70;;;;;;;6.99;100.00;101765.72;5028435;28;20136;-64
2021/12/14 09:06:06;;;;;;;21.58;11.52;;;;;;;7.02;100.00;101763.00;5020952;28;20045;-64
2021/12/14 09:08:34;;;;;;;15.57;10.93;;;;;;;7.02;100.00;101759.53;5023789;28;20107;-64
2021/12/14 09:11:03;;;;;;;16.60;11.02;;;;;;;7.06;100.00;101754.19;5027652;28;20056;-64
2021/12/14 09:13:31;;;;;;;15.60;11.05;;;;;;;7.07;100.00;101753.31;5018236;28;20059;-65
2021/12/14 09:16:06;;;;;;;18.27;10.88;;;;;;;7.10;100.00;101750.59;5025855;28;20053;-65
2021/12/14 09:18:38;;;;;;;17.83;11.75;;;;;;;7.03;100.00;101762.13;5024377;28;20072;-63
2021/12/14 09:21:17;;;;;;;17.63;11.45;;;;;;;7.15;100.00;101763.56;5027170;28;20049;-63
2021/12/14 09:23:48;;;;;;;16.15;11.18;;;;;;;7.18;100.00;101757.38;5026298;28;20122;-63
2021/12/14 09:26:19;;;;;;;17.50;11.30;;;;;;;7.15;100.00;101746.97;5026208;28;20053;-63
2021/12/14 09:28:48;;;;;;;15.75;10.27;;;;;;;7.23;100.00;101752.88;5031105;28;20195;-64
2021/12/14 09:31:20;;;;;;;17.33;11.43;;;;;;;7.19;100.00;101753.88;5025917;28;20410;-63
2021/12/14 09:33:49;;;;;;;14.77;10.55;;;;;;;7.18;100.00;101760.88;5023217;28;20670;-64
2021/12/14 09:36:16;;;;;;;15.65;11.20;;;;;;;7.16;100.00;101757.44;5028747;28;20257;-64
2021/12/14 09:38:51;;;;;;;17.50;10.93;;;;;;;7.12;100.00;101740.09;5031456;28;20144;-63
2021/12/14 09:41:21;;;;;;;14.18;9.90;;;;;;;7.07;100.00;101745.44;5021303;28;20073;-63
2021/12/14 09:43:50;;;;;;;15.82;11.07;;;;;;;7.05;100.00;101738.53;5023190;28;20537;-63
2021/12/14 09:46:18;;;;;;;15.82;11.02;;;;;;;7.07;100.00;101737.59;5027166;28;20058;-63
2021/12/14 09:48:49;;;;;;;15.13;10.88;;;;;;;7.09;100.00;101743.63;5030022;28;20518;-64
2021/12/14 09:51:34;;;;;;;14.52;10.48;;;;;;;7.08;100.00;101734.06;5024107;28;20140;-64
2021/12/14 09:54:05;;;;;;;17.38;11.23;;;;;;;7.13;100.00;101735.72;5025614;28;20059;-62
2021/12/14 09:56:37;;;;;;;17.98;11.30;;;;;;;7.10;100.00;101740.09;5025440;28;20148;-63
2021/12/14 09:59:06;;;;;;;14.50;11.05;;;;;;;7.09;100.00;101742.78;5023800;28;20050;-64
2021/12/14 10:01:38;;;;;;;18.25;10.20;;;;;;;7.11;100.00;101743.59;5005095;28;20140;-64
2021/12/14 10:04:14;;;;;;;15.68;10.70;;;;;;;7.08;100.00;101738.44;5031367;28;20099;-62
2021/12/14 10:06:42;;;;;;;20.00;11.55;;;;;;;7.04;100.00;101732.44;5026485;28;20131;-63
2021/12/14 10:09:15;;;;;;;15.98;12.10;;;;;;;7.06;100.00;101733.22;5022615;28;20129;-62
2021/12/14 10:12:01;;;;;;;16.30;10.85;;;;;;;7.12;100.00;101732.22;5021273;28;20058;-64
2021/12/14 10:14:32;;;;;;;17.45;11.05;;;;;;;7.19;100.00;101725.91;5025440;28;20064;-62
2021/12/14 10:17:00;;;;;;;18.02;11.55;;;;;;;7.25;100.00;101722.25;5029591;28;20593;-63
2021/12/14 10:19:30;;;;;;;19.25;11.57;;;;;;;7.30;100.00;101725.63;5023898;28;21078;-62
2021/12/14 10:22:05;;;;;;;16.95;11.48;;;;;;;7.31;100.00;101727.34;5025978;28;20057;-63
2021/12/14 10:24:33;;;;;;;16.80;11.07;;;;;;;7.33;100.00;101710.66;5025405;28;20568;-62
2021/12/14 10:27:04;;;;;;;17.55;11.25;;;;;;;7.34;100.00;101698.47;5025675;28;20500;-63
2021/12/14 10:29:32;;;;;;;14.93;10.90;;;;;;;7.34;100.00;101694.06;5029926;28;20061;-63
2021/12/14 10:32:03;;;;;;;16.45;10.52;;;;;;;7.31;100.00;101703.78;5030911;28;20071;-62
2021/12/14 10:34:35;;;;;;;18.35;11.40;;;;;;;7.43;100.00;101706.06;5021301;28;20054;-63
2021/12/14 10:37:12;;;;;;;17.27;11.52;;;;;;;7.41;100.00;101707.84;5022500;28;20049;-63
2021/12/14 10:42:39;;;;;;;15.00;10.85;;;;;;;7.44;100.00;101712.16;5019947;28;20140;-63
2021/12/14 10:45:09;;;;;;;19.70;11.23;;;;;;;7.48;100.00;101717.25;5030391;28;20585;-64
2021/12/14 10:47:36;;;;;;;16.80;11.77;;;;;;;7.45;100.00;101709.47;5027859;28;20102;-64
2021/12/14 10:50:10;;;;;;;17.90;13.05;;;;;;;7.49;100.00;101705.88;5025149;28;20087;-63
2021/12/14 10:52:42;;;;;;;18.45;11.40;;;;;;;7.53;100.00;101707.50;5022519;28;20045;-63
2021/12/14 10:55:20;;;;;;;14.82;11.27;;;;;;;7.58;99.88;101700.34;5014396;28;20111;-63
2021/12/14 10:57:48;;;;;;;17.10;12.00;;;;;;;7.69;99.42;101697.41;5004724;28;20056;-63
2021/12/14 11:00:28;;;;;;;18.52;12.82;;;;;;;7.66;99.51;101692.28;5018804;28;20088;-63
2021/12/14 11:03:05;;;;;;;21.35;13.48;;;;;;;7.77;98.90;101690.19;5027983;28;20055;-63
2021/12/14 11:05:34;;;;;;;16.80;11.95;;;;;;;7.89;98.77;101690.72;5023416;28;20541;-62
2021/12/14 11:08:02;;;;;;;16.33;12.60;;;;;;;7.92;97.51;101686.22;5022570;28;20406;-63
2021/12/14 11:10:34;;;;;;;17.33;11.82;;;;;;;7.90;97.81;101698.53;5021653;28;20470;-63
2021/12/14 11:13:07;;;;;;;18.83;13.68;;;;;;;7.84;96.65;101702.22;5006126;28;20053;-63
2021/12/14 11:15:49;;;;;;;24.48;12.02;;;;;;;7.91;96.32;101710.72;5008089;28;20133;-63
2021/12/14 11:18:22;;;;;;;18.05;12.13;;;;;;;7.93;96.19;101700.22;5023407;28;20054;-63
2021/12/14 11:21:11;;;;;;;17.77;12.35;;;;;;;7.86;96.89;101705.63;5022766;28;20515;-62
2021/12/14 11:23:44;;;;;;;18.83;10.90;;;;;;;8.03;96.05;101702.50;5025070;28;20057;-62
2021/12/14 11:26:24;;;;;;;16.00;11.63;;;;;;;7.90;95.54;101695.91;5026543;28;20358;-63
2021/12/14 11:28:55;;;;;;;15.18;11.60;;;;;;;7.95;96.79;101691.38;5028583;28;20080;-63
2021/12/14 11:31:32;;;;;;;15.20;11.50;;;;;;;7.99;96.08;101693.00;5002511;28;20060;-63
2021/12/14 11:33:59;;;;;;;14.45;10.00;;;;;;;8.07;95.40;101687.53;5026105;28;20140;-64
2021/12/14 11:36:38;;;;;;;21.10;10.63;;;;;;;8.19;95.96;101684.50;5018175;28;20240;-63
2021/12/14 11:39:25;;;;;;;17.30;10.73;;;;;;;8.30;94.30;101695.53;5014857;28;20109;-62
2021/12/14 11:41:56;;;;;;;16.90;11.68;;;;;;;8.38;93.09;101684.81;5009184;28;20135;-63
2021/12/14 11:44:29;;;;;;;16.20;11.75;;;;;;;8.61;92.75;101694.53;5016512;28;20079;-63
2021/12/14 11:47:33;;;;;;;15.10;10.90;;;;;;;8.59;90.98;101689.31;5017050;28;20053;-63
2021/12/14 11:50:24;;;;;;;14.27;10.00;;;;;;;8.72;90.07;101688.91;5016838;28;20041;-64
2021/12/14 11:53:01;;;;;;;14.68;10.63;;;;;;;8.72;90.41;101688.91;5026809;28;20054;-64
2021/12/14 11:55:43;;;;;;;14.05;9.93;;;;;;;8.56;91.44;101697.31;5022712;28;20545;-62
2021/12/14 11:58:13;;;;;;;16.67;10.25;;;;;;;8.52;91.06;101695.72;5017824;28;20064;-62
2021/12/14 12:00:52;;;;;;;13.93;10.63;;;;;;;8.60;92.06;101704.19;5022028;28;20132;-61
2021/12/14 12:03:42;;;;;;;17.02;11.45;;;;;;;8.61;90.34;101698.03;5021824;28;20087;-62